Time;durP1;ratioP1;P1;durP2;ratioP2;P2;SDS_P1;SDS_P2;PMS_P1;PMS_P2;Temp;Humidity;BMP_temperature;BMP_pressure;BME280_temperature;BME280_humidity;BME280_pressure;Samples;Min_cycle;Max_cycle;Signal;HPM_P1;HPM_P2
2022/01/30 00:00:00;;;;;;;27.23;4.22;;;6.30;99.90;;;;;;5019700;28;20045;-81
2022/01/30 00:02:29;;;;;;;26.13;4.40;;;6.20;99.90;;;;;;5016273;28;20042;-82
2022/01/30 00:04:55;;;;;;;30.98;5.40;;;6.20;99.90;;;;;;5000798;28;20397;-81
2022/01/30 00:07:21;;;;;;;22.77;4.80;;;6.20;99.90;;;;;;5007337;28;20037;-81
2022/01/30 00:09:48;;;;;;;34.05;6.43;;;6.20;99.90;;;;;;5006952;28;20045;-81
2022/01/30 00:12:16;;;;;;;28.08;5.55;;;6.20;99.90;;;;;;4991013;28;20038;-81
2022/01/30 00:14:42;;;;;;;15.20;3.25;;;6.30;99.90;;;;;;5006264;28;20128;-81
2022/01/30 00:17:18;;;;;;;27.88;5.20;;;6.40;99.90;;;;;;5003092;28;20537;-81
2022/01/30 00:19:48;;;;;;;28.88;4.00;;;6.50;99.90;;;;;;4989621;28;20049;-81
2022/01/30 00:22:39;;;;;;;21.20;4.20;;;6.60;99.90;;;;;;4986241;28;20045;-81
2022/01/30 00:25:13;;;;;;;21.58;4.43;;;6.70;99.90;;;;;;4989384;28;20037;-81
2022/01/30 00:28:02;;;;;;;26.95;4.95;;;7.00;99.90;;;;;;5004115;28;20049;-81
2022/01/30 00:30:33;;;;;;;24.25;4.88;;;7.10;99.90;;;;;;5009114;28;20151;-81
2022/01/30 00:32:59;;;;;;;28.08;5.25;;;7.20;99.90;;;;;;4991575;28;20516;-82
2022/01/30 00:35:24;;;;;;;24.75;4.05;;;7.20;99.90;;;;;;4990137;28;20038;-80
2022/01/30 00:37:50;;;;;;;28.63;5.60;;;7.00;99.90;;;;;;5006096;28;20524;-82
2022/01/30 00:40:15;;;;;;;23.38;5.68;;;7.00;99.90;;;;;;5014290;28;20064;-81
2022/01/30 00:42:41;;;;;;;17.08;3.83;;;6.90;99.90;;;;;;5007261;28;20046;-81
2022/01/30 00:45:07;;;;;;;23.27;4.57;;;6.90;99.90;;;;;;5003872;28;20048;-82
2022/01/30 00:47:33;;;;;;;17.40;3.80;;;6.80;99.90;;;;;;5008893;28;20516;-81
2022/01/30 00:49:58;;;;;;;18.38;3.97;;;6.70;99.90;;;;;;5008417;28;20079;-81
2022/01/30 00:52:24;;;;;;;22.83;4.47;;;6.50;99.90;;;;;;5006429;28;20603;-81
2022/01/30 00:54:50;;;;;;;24.95;3.88;;;6.60;99.90;;;;;;4992464;28;20107;-81
2022/01/30 00:57:15;;;;;;;19.10;3.60;;;6.60;99.90;;;;;;5004049;28;20092;-81
2022/01/30 00:59:41;;;;;;;25.98;3.33;;;6.50;99.90;;;;;;5009325;28;20398;-81
2022/01/30 01:02:06;;;;;;;22.98;3.20;;;6.50;99.90;;;;;;4989375;28;20044;-81
2022/01/30 01:04:32;;;;;;;25.23;4.13;;;6.50;99.90;;;;;;5008367;28;20559;-81
2022/01/30 01:06:57;;;;;;;16.67;3.33;;;6.40;99.90;;;;;;5008595;28;20037;-81
2022/01/30 01:09:30;;;;;;;24.45;3.90;;;6.30;99.90;;;;;;4993111;28;20041;-81
2022/01/30 01:12:33;;;;;;;26.00;4.57;;;6.30;99.90;;;;;;4983255;28;20099;-81
2022/01/30 01:25:46;;;;;;;32.95;6.05;;;6.20;99.90;;;;;;5006290;28;20383;-81
2022/01/30 01:28:12;;;;;;;16.17;3.55;;;6.20;99.90;;;;;;4999297;28;20056;-81
2022/01/30 01:30:38;;;;;;;30.80;5.00;;;6.20;99.90;;;;;;5008433;28;20149;-81
2022/01/30 01:33:04;;;;;;;30.95;5.13;;;6.40;99.90;;;;;;5012358;28;20045;-81
2022/01/30 01:35:29;;;;;;;36.80;5.60;;;6.30;99.90;;;;;;5011747;28;20041;-80
2022/01/30 01:37:55;;;;;;;30.73;4.90;;;6.40;99.90;;;;;;4998587;28;20045;-81
2022/01/30 01:40:22;;;;;;;34.58;6.85;;;6.40;99.90;;;;;;4996972;28;20100;-81
2022/01/30 01:42:47;;;;;;;31.98;6.53;;;6.40;99.90;;;;;;5011375;28;20437;-81
2022/01/30 01:45:19;;;;;;;29.15;5.68;;;6.30;99.90;;;;;;5011879;28;20037;-81
2022/01/30 01:47:45;;;;;;;27.75;5.45;;;6.10;99.90;;;;;;5015824;28;20050;-81
2022/01/30 01:50:17;;;;;;;32.67;5.25;;;6.00;99.90;;;;;;5001226;28;20045;-81
2022/01/30 01:52:44;;;;;;;28.90;5.53;;;5.80;99.90;;;;;;5013437;28;20049;-81
2022/01/30 01:55:10;;;;;;;26.67;5.22;;;5.70;99.90;;;;;;4995700;28;20041;-81
2022/01/30 01:57:36;;;;;;;35.60;5.70;;;5.60;99.90;;;;;;5011889;28;20107;-81
2022/01/30 02:00:03;;;;;;;31.83;5.22;;;5.60;99.90;;;;;;5026901;28;20120;-81
2022/01/30 02:02:29;;;;;;;24.67;4.82;;;5.60;99.90;;;;;;4996490;28;20635;-81
2022/01/30 02:04:58;;;;;;;30.10;4.85;;;5.70;99.90;;;;;;4994709;28;20136;-81
2022/01/30 02:09:50;;;;;;;45.53;7.03;;;5.90;99.90;;;;;;5012131;28;20385;-82
2022/01/30 02:12:25;;;;;;;33.47;7.53;;;6.00;99.90;;;;;;5012716;28;20411;-81
2022/01/30 02:25:48;;;;;;;25.63;5.28;;;6.20;99.90;;;;;;5012542;28;20041;-81
2022/01/30 02:28:17;;;;;;;28.85;5.22;;;6.00;99.90;;;;;;5007592;28;20046;-81
2022/01/30 02:30:54;;;;;;;27.55;6.32;;;6.00;99.90;;;;;;5025332;28;20049;-81
2022/01/30 02:33:23;;;;;;;14.38;3.83;;;5.90;99.90;;;;;;5008786;28;20069;-80
2022/01/30 02:35:49;;;;;;;24.20;4.03;;;6.00;99.90;;;;;;5026945;28;20582;-81
2022/01/30 02:38:17;;;;;;;30.63;5.63;;;6.00;99.90;;;;;;5022631;28;20465;-81
2022/01/30 02:40:45;;;;;;;16.95;3.92;;;6.10;99.90;;;;;;4998840;28;20054;-81
2022/01/30 02:43:13;;;;;;;42.90;7.43;;;6.20;99.90;;;;;;5010441;28;20041;-80
2022/01/30 02:45:46;;;;;;;37.13;7.53;;;6.20;99.90;;;;;;4995594;28;20052;-81
2022/01/30 02:48:18;;;;;;;41.95;5.30;;;6.30;99.90;;;;;;5010587;28;20044;-81
2022/01/30 02:53:12;;;;;;;27.55;5.15;;;6.30;99.90;;;;;;5011875;28;20566;-81
2022/01/30 02:55:38;;;;;;;25.58;4.30;;;6.40;99.90;;;;;;5010987;28;20077;-81
2022/01/30 02:58:04;;;;;;;23.25;4.45;;;6.30;99.90;;;;;;5009889;28;20049;-81
2022/01/30 03:00:30;;;;;;;29.48;5.35;;;6.30;99.90;;;;;;5017298;28;20119;-81
2022/01/30 03:02:56;;;;;;;24.27;5.15;;;6.30;99.90;;;;;;4992497;28;20465;-80
2022/01/30 03:05:22;;;;;;;20.88;4.55;;;6.30;99.90;;;;;;5008322;28;20076;-81
2022/01/30 03:07:48;;;;;;;30.92;5.07;;;6.20;99.90;;;;;;5004496;28;20042;-81
2022/01/30 03:10:14;;;;;;;21.38;4.22;;;6.20;99.90;;;;;;5005338;28;20124;-81
2022/01/30 03:12:40;;;;;;;35.25;5.35;;;6.10;99.90;;;;;;5010408;28;20120;-81
2022/01/30 03:15:06;;;;;;;24.80;4.63;;;6.00;99.90;;;;;;5010391;28;20137;-81
2022/01/30 03:17:32;;;;;;;28.98;6.05;;;6.00;99.90;;;;;;5011333;28;20752;-81
2022/01/30 03:19:58;;;;;;;23.70;4.57;;;6.10;99.90;;;;;;5000786;28;20120;-81
2022/01/30 03:22:24;;;;;;;35.75;5.28;;;6.10;99.90;;;;;;5007602;28;20049;-81
2022/01/30 03:24:50;;;;;;;16.27;3.35;;;6.10;99.90;;;;;;5009668;28;20124;-81
2022/01/30 03:27:16;;;;;;;31.73;6.82;;;6.20;99.90;;;;;;4993983;28;20593;-81
2022/01/30 03:29:49;;;;;;;34.35;5.68;;;6.30;99.90;;;;;;5006871;28;20046;-81
2022/01/30 03:32:15;;;;;;;30.98;5.75;;;6.30;99.90;;;;;;5010541;28;20041;-80
2022/01/30 03:34:40;;;;;;;39.78;7.20;;;6.40;99.90;;;;;;5003967;28;20107;-81
2022/01/30 03:37:06;;;;;;;37.55;7.05;;;6.40;99.90;;;;;;5011087;28;20410;-81
2022/01/30 03:39:32;;;;;;;45.75;5.47;;;6.50;99.90;;;;;;5009855;28;20042;-81
2022/01/30 03:41:57;;;;;;;51.08;6.45;;;6.50;99.90;;;;;;5010726;28;20084;-81
2022/01/30 03:44:23;;;;;;;30.05;6.10;;;6.50;99.90;;;;;;4993457;28;20033;-81
2022/01/30 03:46:48;;;;;;;23.67;4.40;;;6.50;99.90;;;;;;5010759;28;20155;-81
2022/01/30 03:49:14;;;;;;;33.30;5.53;;;6.60;99.90;;;;;;5009920;28;20037;-81
2022/01/30 03:51:40;;;;;;;31.38;5.55;;;6.70;99.90;;;;;;4994084;28;20099;-81
2022/01/30 03:54:05;;;;;;;29.65;4.75;;;6.70;99.90;;;;;;5004757;28;20042;-81
2022/01/30 03:56:31;;;;;;;15.85;3.95;;;6.70;99.90;;;;;;4994054;28;20099;-81
2022/01/30 03:58:57;;;;;;;22.60;3.97;;;6.70;99.90;;;;;;5009603;28;20289;-81
2022/01/30 04:01:22;;;;;;;33.42;6.00;;;6.70;99.90;;;;;;4993560;28;20067;-81
2022/01/30 04:03:48;;;;;;;43.38;7.25;;;6.70;99.90;;;;;;4992058;28;20099;-81
2022/01/30 04:06:13;;;;;;;12.88;3.40;;;6.70;99.90;;;;;;5009942;28;20105;-81
2022/01/30 04:08:40;;;;;;;32.33;5.85;;;6.70;99.90;;;;;;5009415;28;20076;-81
2022/01/30 04:11:05;;;;;;;25.95;5.60;;;6.70;99.90;;;;;;5009630;28;20520;-81
2022/01/30 04:13:31;;;;;;;30.05;4.72;;;6.70;99.90;;;;;;4992522;28;20034;-81
2022/01/30 04:15:57;;;;;;;35.78;5.90;;;6.70;99.90;;;;;;4994273;28;20052;-81
2022/01/30 04:18:23;;;;;;;33.83;4.80;;;6.60;99.90;;;;;;5008903;28;20077;-80
2022/01/30 04:20:50;;;;;;;31.58;5.38;;;6.40;99.90;;;;;;5009298;28;20064;-80
2022/01/30 04:23:16;;;;;;;35.63;6.43;;;6.30;99.90;;;;;;5009191;28;20053;-81
2022/01/30 04:25:42;;;;;;;26.98;5.97;;;6.30;99.90;;;;;;5009230;28;20033;-82
2022/01/30 04:28:08;;;;;;;45.35;6.18;;;6.20;99.90;;;;;;4993218;28;20068;-81
2022/01/30 04:30:33;;;;;;;34.53;6.05;;;6.10;99.90;;;;;;4992977;28;20044;-81
2022/01/30 04:32:59;;;;;;;36.38;6.22;;;6.00;99.90;;;;;;5008082;28;20056;-81
2022/01/30 04:35:28;;;;;;;39.58;5.43;;;6.00;99.90;;;;;;4994386;28;20050;-81
2022/01/30 04:38:10;;;;;;;36.22;6.07;;;6.10;99.90;;;;;;4980237;28;20037;-81
2022/01/30 04:55:00;;;;;;;36.00;6.28;;;6.20;99.90;;;;;;5011643;28;20110;-81
2022/01/30 04:57:42;;;;;;;28.20;6.43;;;6.20;99.90;;;;;;5007207;28;20095;-81
2022/01/30 05:08:16;;;;;;;47.40;6.65;;;6.30;99.90;;;;;;5013542;28;20053;-82
2022/01/30 05:10:42;;;;;;;45.03;8.32;;;6.30;99.90;;;;;;5010395;28;20061;-81
2022/01/30 05:13:12;;;;;;;12.85;2.67;;;6.20;99.90;;;;;;5029470;28;20243;-81
2022/01/30 05:15:38;;;;;;;20.38;4.30;;;6.20;99.90;;;;;;5012529;28;20125;-81
2022/01/30 05:18:04;;;;;;;41.97;6.53;;;6.20;99.90;;;;;;5028464;28;20077;-81
2022/01/30 05:20:30;;;;;;;34.25;5.50;;;6.10;99.90;;;;;;5010918;28;20194;-81
2022/01/30 05:22:57;;;;;;;28.73;5.75;;;6.10;99.90;;;;;;5012983;28;20053;-81
2022/01/30 05:25:23;;;;;;;23.58;3.95;;;6.00;99.90;;;;;;5013069;28;20041;-81
2022/01/30 05:27:48;;;;;;;46.28;7.70;;;5.90;99.90;;;;;;4995754;28;20049;-81
2022/01/30 05:30:15;;;;;;;34.80;5.38;;;5.90;99.90;;;;;;5012649;28;20560;-81
2022/01/30 05:32:41;;;;;;;47.63;9.52;;;5.90;99.90;;;;;;5012550;28;20044;-81
2022/01/30 05:35:07;;;;;;;41.90;8.80;;;5.90;99.90;;;;;;5012848;28;20026;-81
2022/01/30 05:37:37;;;;;;;37.10;6.13;;;5.90;99.90;;;;;;4996424;28;20116;-81
2022/01/30 05:40:04;;;;;;;32.85;5.57;;;5.90;99.90;;;;;;5012212;28;20489;-81
2022/01/30 05:42:29;;;;;;;50.42;7.93;;;6.00;99.90;;;;;;4991094;28;20046;-80
2022/01/30 05:47:42;;;;;;;41.47;7.68;;;6.10;99.90;;;;;;5011642;28;20124;-81
2022/01/30 05:50:08;;;;;;;35.92;6.20;;;6.20;99.90;;;;;;5011788;28;20041;-81
2022/01/30 05:52:34;;;;;;;29.92;5.70;;;6.20;99.90;;;;;;5011805;28;20447;-81
2022/01/30 05:54:59;;;;;;;30.15;5.50;;;6.20;99.90;;;;;;4992868;28;20132;-81
2022/01/30 05:57:26;;;;;;;36.00;6.40;;;6.20;99.90;;;;;;5012254;28;20051;-81
2022/01/30 05:59:52;;;;;;;23.98;3.65;;;6.20;99.90;;;;;;4989946;28;20045;-81
2022/01/30 06:02:18;;;;;;;39.00;6.85;;;6.20;99.90;;;;;;4996481;28;20448;-81
2022/01/30 06:04:43;;;;;;;37.42;6.75;;;6.20;99.90;;;;;;4995622;28;20037;-82
2022/01/30 06:07:11;;;;;;;42.65;4.57;;;6.20;99.90;;;;;;4997511;28;20088;-81
2022/01/30 06:09:36;;;;;;;41.42;7.57;;;6.20;99.90;;;;;;5013188;28;20440;-82
2022/01/30 06:12:02;;;;;;;31.38;6.72;;;6.20;99.90;;;;;;4993590;28;20037;-81
2022/01/30 06:14:28;;;;;;;21.90;3.30;;;6.30;99.90;;;;;;4992808;28;20486;-81
2022/01/30 06:16:53;;;;;;;21.77;4.55;;;6.30;99.90;;;;;;4990849;28;20052;-81
2022/01/30 06:19:22;;;;;;;29.13;5.18;;;6.40;99.90;;;;;;4995009;28;20540;-80
2022/01/30 06:21:48;;;;;;;38.92;8.20;;;6.40;99.90;;;;;;5001233;28;20549;-80
2022/01/30 06:24:13;;;;;;;7.93;2.50;;;6.40;99.90;;;;;;5011145;28;20041;-81
2022/01/30 06:26:39;;;;;;;31.10;6.15;;;6.40;99.90;;;;;;5001339;28;20037;-80
2022/01/30 06:29:05;;;;;;;21.50;4.25;;;6.30;99.90;;;;;;5005177;28;20045;-81
2022/01/30 06:31:30;;;;;;;27.98;5.63;;;6.30;99.90;;;;;;5012375;28;20045;-81
2022/01/30 06:33:56;;;;;;;22.70;4.00;;;6.20;99.90;;;;;;4995581;28;20076;-81
2022/01/30 06:36:22;;;;;;;42.78;6.10;;;6.20;99.90;;;;;;5011790;28;20045;-81
2022/01/30 06:38:47;;;;;;;50.35;7.82;;;6.30;99.90;;;;;;5011657;28;20095;-80
2022/01/30 06:41:14;;;;;;;39.53;6.88;;;6.30;99.90;;;;;;5011134;28;20099;-81
2022/01/30 06:43:39;;;;;;;38.03;6.07;;;6.30;99.90;;;;;;4995527;28;20052;-81
2022/01/30 06:46:05;;;;;;;19.63;4.45;;;6.30;99.90;;;;;;5011694;28;20398;-81
2022/01/30 06:48:31;;;;;;;27.52;6.22;;;6.30;99.90;;;;;;4997650;28;20607;-80
2022/01/30 06:50:56;;;;;;;30.33;5.97;;;6.30;99.90;;;;;;5013759;28;20044;-80
2022/01/30 06:53:24;;;;;;;40.72;8.98;;;6.40;99.90;;;;;;4996055;28;20044;-80
2022/01/30 06:55:50;;;;;;;37.67;6.43;;;6.50;99.90;;;;;;5009661;28;20053;-81
2022/01/30 06:58:16;;;;;;;11.02;3.38;;;6.50;99.90;;;;;;5011639;28;20083;-81
2022/01/30 07:00:42;;;;;;;36.08;6.88;;;6.50;99.90;;;;;;4994494;28;20525;-80
2022/01/30 07:03:07;;;;;;;43.22;6.95;;;6.50;99.90;;;;;;4991651;28;20046;-81
2022/01/30 07:05:33;;;;;;;39.80;6.07;;;6.60;99.90;;;;;;5011611;28;20033;-81
2022/01/30 07:07:58;;;;;;;37.90;4.90;;;6.60;99.90;;;;;;4986399;28;20129;-81
2022/01/30 07:10:25;;;;;;;34.30;5.97;;;6.60;99.90;;;;;;5009479;28;20047;-80
2022/01/30 07:12:50;;;;;;;50.97;7.93;;;6.60;99.90;;;;;;4993729;28;20085;-81
2022/01/30 07:15:16;;;;;;;35.95;5.60;;;6.60;99.90;;;;;;5011684;28;20103;-81
2022/01/30 07:17:42;;;;;;;26.73;4.05;;;6.60;99.90;;;;;;4993247;28;20095;-81
2022/01/30 07:20:09;;;;;;;34.10;6.25;;;6.50;99.90;;;;;;4993491;28;20029;-81
2022/01/30 07:22:35;;;;;;;19.38;3.03;;;6.50;99.90;;;;;;5012316;28;20104;-81
2022/01/30 07:25:02;;;;;;;18.50;4.03;;;6.50;99.90;;;;;;4994305;28;20187;-80
2022/01/30 07:27:28;;;;;;;31.55;6.22;;;6.50;99.90;;;;;;5001301;28;20033;-82
2022/01/30 07:29:54;;;;;;;36.60;6.60;;;6.50;99.90;;;;;;4993961;28;20033;-81
2022/01/30 07:32:19;;;;;;;20.35;4.47;;;6.40;99.90;;;;;;4993436;28;20045;-81
2022/01/30 07:34:49;;;;;;;21.95;3.92;;;6.40;99.90;;;;;;5009150;28;20052;-81
2022/01/30 07:37:15;;;;;;;16.27;4.35;;;6.40;99.90;;;;;;4993640;28;20037;-81
2022/01/30 07:39:42;;;;;;;25.42;3.92;;;6.40;99.90;;;;;;4996376;28;20087;-81
2022/01/30 07:42:08;;;;;;;15.68;4.40;;;6.30;99.90;;;;;;4993778;28;20117;-81
2022/01/30 07:44:34;;;;;;;35.15;6.15;;;6.30;99.90;;;;;;5009015;28;20108;-81
2022/01/30 07:47:00;;;;;;;16.23;3.17;;;6.30;99.90;;;;;;4999573;28;20533;-80
2022/01/30 07:49:25;;;;;;;20.95;4.43;;;6.30;99.90;;;;;;5009583;28;20127;-81
2022/01/30 07:51:51;;;;;;;25.95;5.93;;;6.30;99.90;;;;;;5005640;28;20049;-80
2022/01/30 07:54:17;;;;;;;25.00;4.50;;;6.30;99.90;;;;;;5012613;28;20041;-80
2022/01/30 07:56:42;;;;;;;29.45;5.38;;;6.30;99.90;;;;;;5008689;28;20107;-81
2022/01/30 07:59:08;;;;;;;18.63;3.28;;;6.30;99.90;;;;;;4997957;28;20506;-81
2022/01/30 08:01:33;;;;;;;18.45;4.10;;;6.30;99.90;;;;;;4986956;28;20426;-80
2022/01/30 08:04:00;;;;;;;26.13;5.40;;;6.30;99.90;;;;;;4999771;28;20048;-81
2022/01/30 08:06:26;;;;;;;20.08;4.00;;;6.30;99.90;;;;;;4999773;28;20065;-81
2022/01/30 08:08:52;;;;;;;11.27;2.95;;;6.30;99.90;;;;;;5007204;28;20045;-81
2022/01/30 08:11:17;;;;;;;16.17;3.58;;;6.30;99.90;;;;;;5009236;28;20555;-81
2022/01/30 08:13:43;;;;;;;20.27;3.80;;;6.30;99.90;;;;;;4984799;28;20082;-81
2022/01/30 08:16:09;;;;;;;29.30;5.45;;;6.30;99.90;;;;;;4982299;28;20045;-80
2022/01/30 08:18:37;;;;;;;22.25;4.43;;;6.30;99.90;;;;;;4991339;28;20072;-81
2022/01/30 08:21:04;;;;;;;22.13;3.25;;;6.40;99.90;;;;;;4996937;28;20049;-81
2022/01/30 08:23:32;;;;;;;19.52;3.75;;;6.30;99.90;;;;;;4990248;28;20050;-81
2022/01/30 08:25:58;;;;;;;44.67;7.50;;;6.30;99.90;;;;;;5003989;28;20033;-81
2022/01/30 08:28:23;;;;;;;17.08;2.22;;;6.30;99.90;;;;;;5009228;28;20051;-81
2022/01/30 08:30:51;;;;;;;23.77;3.80;;;6.30;99.90;;;;;;5001068;28;20041;-81
2022/01/30 08:33:16;;;;;;;16.33;3.45;;;6.20;99.90;;;;;;5009418;28;20077;-81
2022/01/30 08:35:43;;;;;;;26.85;4.60;;;6.10;99.90;;;;;;5009046;28;20080;-81
2022/01/30 08:38:10;;;;;;;26.33;4.72;;;6.20;99.90;;;;;;4992731;28;20057;-81
2022/01/30 08:40:36;;;;;;;41.15;6.95;;;6.30;99.90;;;;;;4998627;28;20041;-82
2022/01/30 08:43:02;;;;;;;32.97;5.10;;;6.40;99.90;;;;;;4993576;28;20033;-81
2022/01/30 08:45:28;;;;;;;23.48;3.85;;;6.50;99.90;;;;;;5009290;28;20037;-81
2022/01/30 08:47:54;;;;;;;20.23;5.25;;;6.60;99.90;;;;;;4981600;28;20077;-81
2022/01/30 08:50:21;;;;;;;17.00;4.05;;;6.60;99.90;;;;;;5018834;28;20049;-82
2022/01/30 08:52:47;;;;;;;28.92;6.00;;;6.60;99.90;;;;;;5009125;28;20045;-81
2022/01/30 08:55:15;;;;;;;28.00;8.32;;;6.60;99.90;;;;;;5009091;28;20048;-82
2022/01/30 08:57:41;;;;;;;31.15;5.82;;;6.60;99.90;;;;;;5008791;28;20049;-81
2022/01/30 09:00:10;;;;;;;21.65;6.28;;;6.50;99.90;;;;;;4993363;28;20110;-81
2022/01/30 09:02:37;;;;;;;25.38;2.35;;;6.50;99.90;;;;;;5034666;28;20375;-81
2022/01/30 09:05:04;;;;;;;33.80;6.55;;;6.40;99.90;;;;;;4992732;28;20034;-81
2022/01/30 09:07:30;;;;;;;18.83;3.33;;;6.50;99.90;;;;;;5020695;28;20045;-81
2022/01/30 09:09:55;;;;;;;21.70;4.82;;;6.70;99.90;;;;;;5014004;28;20052;-81
2022/01/30 09:12:21;;;;;;;15.68;4.13;;;7.10;99.90;;;;;;5006120;28;20038;-82
2022/01/30 09:14:47;;;;;;;27.00;4.95;;;7.20;99.90;;;;;;5005483;28;20041;-82
2022/01/30 09:17:14;;;;;;;25.52;4.60;;;7.10;99.90;;;;;;5016977;28;20061;-81
2022/01/30 09:19:41;;;;;;;30.77;5.25;;;6.90;99.90;;;;;;5005463;28;20045;-81
2022/01/30 09:22:09;;;;;;;46.13;5.85;;;6.80;99.90;;;;;;4985189;28;20077;-81
2022/01/30 09:24:35;;;;;;;42.70;8.15;;;6.90;99.90;;;;;;5013847;28;20137;-81
2022/01/30 09:27:01;;;;;;;48.78;7.38;;;7.20;99.90;;;;;;4989100;28;20157;-81
2022/01/30 09:29:28;;;;;;;24.05;4.60;;;7.60;99.90;;;;;;4988809;28;20030;-81
2022/01/30 09:31:55;;;;;;;42.50;6.55;;;7.80;99.90;;;;;;5005489;28;20490;-81
2022/01/30 09:34:20;;;;;;;22.52;4.68;;;7.70;99.90;;;;;;5016327;28;20037;-81
2022/01/30 09:36:46;;;;;;;18.98;4.50;;;7.50;99.90;;;;;;4979530;28;20034;-81
2022/01/30 09:39:11;;;;;;;36.38;4.75;;;7.30;99.90;;;;;;5002696;28;20038;-81
2022/01/30 09:41:37;;;;;;;13.05;3.17;;;7.20;99.90;;;;;;5021430;28;20033;-81
2022/01/30 09:44:03;;;;;;;27.95;5.32;;;7.10;99.90;;;;;;4987303;28;20151;-81
2022/01/30 09:46:29;;;;;;;15.13;3.60;;;7.00;99.90;;;;;;5004536;28;20521;-81
2022/01/30 09:48:59;;;;;;;32.47;5.63;;;7.10;99.90;;;;;;5004102;28;20112;-81
2022/01/30 09:51:25;;;;;;;23.50;3.78;;;7.50;99.90;;;;;;4984480;28;20180;-81
2022/01/30 09:53:51;;;;;;;10.32;2.47;;;7.70;99.90;;;;;;4986057;28;20125;-80
2022/01/30 09:56:18;;;;;;;18.65;3.35;;;8.00;99.90;;;;;;4996215;28;20597;-81
2022/01/30 09:58:47;;;;;;;25.83;4.47;;;8.10;99.90;;;;;;4987438;28;20416;-81
2022/01/30 10:01:12;;;;;;;28.88;4.90;;;8.10;98.30;;;;;;5002708;28;20037;-81
2022/01/30 10:03:38;;;;;;;23.70;3.88;;;8.20;98.60;;;;;;5007898;28;20033;-82
2022/01/30 10:06:14;;;;;;;27.33;3.88;;;8.30;98.10;;;;;;5007310;28;20029;-81
2022/01/30 10:08:43;;;;;;;35.92;6.47;;;8.40;96.70;;;;;;5007576;28;20037;-81
2022/01/30 10:11:31;;;;;;;6.60;2.47;;;8.50;96.20;;;;;;4988388;28;20045;-81
2022/01/30 10:14:06;;;;;;;29.30;5.32;;;8.50;96.60;;;;;;5004323;28;20049;-81
2022/01/30 10:16:46;;;;;;;21.27;3.78;;;8.50;97.00;;;;;;4998859;28;20041;-81
2022/01/30 10:19:19;;;;;;;39.08;3.63;;;8.30;96.60;;;;;;5000634;28;20038;-81
2022/01/30 10:21:49;;;;;;;36.63;6.25;;;8.10;96.50;;;;;;5002194;28;20449;-81
2022/01/30 10:24:25;;;;;;;15.65;2.75;;;7.90;97.60;;;;;;5002881;28;20064;-82
2022/01/30 10:26:53;;;;;;;37.22;6.93;;;7.80;97.90;;;;;;4986693;28;20564;-81
2022/01/30 10:29:26;;;;;;;23.50;4.65;;;7.60;98.90;;;;;;5002818;28;20049;-81
2022/01/30 10:32:05;;;;;;;23.33;3.85;;;7.60;99.50;;;;;;4999175;28;20053;-82
2022/01/30 10:34:33;;;;;;;22.15;5.05;;;7.50;99.90;;;;;;4996917;28;20036;-81
2022/01/30 10:37:19;;;;;;;41.28;5.85;;;7.40;99.90;;;;;;5017424;28;20768;-81
2022/01/30 10:40:03;;;;;;;11.57;2.20;;;7.40;99.90;;;;;;5002265;28;20402;-81
2022/01/30 10:42:35;;;;;;;38.03;6.28;;;7.40;99.90;;;;;;5004489;28;20252;-81
2022/01/30 10:45:02;;;;;;;37.58;6.97;;;7.40;99.90;;;;;;5002948;28;20041;-81
2022/01/30 10:47:30;;;;;;;13.07;3.67;;;7.50;99.90;;;;;;5002240;28;20049;-81
2022/01/30 10:49:57;;;;;;;25.40;5.07;;;7.70;99.90;;;;;;5020776;28;20116;-81
2022/01/30 10:52:23;;;;;;;43.15;6.65;;;7.90;99.50;;;;;;5004695;28;20042;-81
2022/01/30 10:54:51;;;;;;;35.70;5.80;;;8.00;99.20;;;;;;5002423;28;20911;-81
2022/01/30 10:57:17;;;;;;;24.67;6.18;;;8.10;98.80;;;;;;4988809;28;20096;-81
2022/01/30 10:59:45;;;;;;;26.92;4.80;;;8.20;97.20;;;;;;5005394;28;20146;-81
2022/01/30 11:02:15;;;;;;;42.80;6.28;;;8.20;96.60;;;;;;5004835;28;20058;-81
2022/01/30 11:04:41;;;;;;;20.38;4.25;;;8.30;96.00;;;;;;4989266;28;20041;-81
2022/01/30 11:07:07;;;;;;;31.13;4.63;;;8.30;95.20;;;;;;5003365;28;20042;-81
2022/01/30 11:09:41;;;;;;;22.52;4.28;;;8.40;95.80;;;;;;5002878;28;20069;-81
2022/01/30 11:12:18;;;;;;;27.27;5.50;;;8.60;97.20;;;;;;4987244;28;20042;-82
2022/01/30 11:17:15;;;;;;;19.00;3.55;;;8.70;96.10;;;;;;5006658;28;20049;-81
2022/01/30 11:19:43;;;;;;;42.65;5.18;;;8.60;95.80;;;;;;4989317;28;20057;-81
2022/01/30 11:22:11;;;;;;;20.60;4.05;;;8.40;94.90;;;;;;4988534;28;20575;-81
2022/01/30 11:24:49;;;;;;;30.15;3.58;;;8.30;96.30;;;;;;5009154;28;20561;-81
2022/01/30 11:27:16;;;;;;;8.85;2.92;;;8.40;96.80;;;;;;5006425;28;20038;-81
2022/01/30 11:29:43;;;;;;;32.80;4.85;;;8.40;96.30;;;;;;4992305;28;20588;-80
2022/01/30 11:32:09;;;;;;;38.95;6.70;;;8.50;96.40;;;;;;4986579;28;20297;-81
2022/01/30 11:34:39;;;;;;;30.80;4.78;;;8.50;95.50;;;;;;4987488;28;20038;-81
2022/01/30 11:37:07;;;;;;;23.20;4.57;;;8.60;96.50;;;;;;4987166;28;20037;-81
2022/01/30 11:39:35;;;;;;;18.10;4.30;;;8.70;96.20;;;;;;5000718;28;20059;-81
2022/01/30 11:42:08;;;;;;;24.13;5.15;;;8.80;95.30;;;;;;4996427;28;20116;-81
2022/01/30 11:44:35;;;;;;;12.90;2.58;;;8.90;94.00;;;;;;4998693;28;20049;-81
2022/01/30 11:47:04;;;;;;;21.80;3.17;;;8.70;94.20;;;;;;4972979;28;20471;-82
2022/01/30 11:49:41;;;;;;;13.30;3.53;;;8.50;95.00;;;;;;4987022;28;20124;-80
2022/01/30 11:52:10;;;;;;;34.90;4.95;;;8.40;95.30;;;;;;5000760;28;20065;-81
2022/01/30 11:54:40;;;;;;;25.67;4.90;;;8.40;95.00;;;;;;5001502;28;20042;-81
2022/01/30 11:57:21;;;;;;;28.48;5.97;;;8.20;95.50;;;;;;4988632;28;20676;-81
2022/01/30 11:59:55;;;;;;;25.42;5.65;;;8.10;95.60;;;;;;5004021;28;20390;-81
2022/01/30 12:02:34;;;;;;;24.45;4.55;;;8.00;97.00;;;;;;5006966;28;20033;-81
2022/01/30 12:05:08;;;;;;;33.47;6.28;;;8.00;96.70;;;;;;5004913;28;20052;-81
2022/01/30 12:07:44;;;;;;;27.63;4.93;;;8.20;97.10;;;;;;4988533;28;20490;-81
2022/01/30 12:10:19;;;;;;;36.25;5.88;;;8.30;97.20;;;;;;4988681;28;20042;-80
2022/01/30 12:12:59;;;;;;;29.23;5.00;;;8.40;96.80;;;;;;4987790;28;20084;-81
2022/01/30 12:15:44;;;;;;;23.63;4.07;;;8.40;96.60;;;;;;4997242;28;20065;-80
2022/01/30 12:18:37;;;;;;;29.65;5.82;;;8.20;97.00;;;;;;4986980;28;20042;-81
2022/01/30 12:21:11;;;;;;;30.33;6.50;;;8.10;97.50;;;;;;5000086;28;20148;-81
2022/01/30 12:23:42;;;;;;;29.92;5.00;;;8.00;97.60;;;;;;4988350;28;20118;-81
2022/01/30 12:26:14;;;;;;;34.03;4.93;;;7.90;98.00;;;;;;5019427;28;20291;-82
2022/01/30 12:28:46;;;;;;;17.05;3.78;;;7.90;98.60;;;;;;5006845;28;20087;-81
2022/01/30 12:31:31;;;;;;;41.40;6.45;;;7.90;99.60;;;;;;4987752;28;20042;-81
2022/01/30 12:33:59;;;;;;;30.70;5.70;;;8.00;98.70;;;;;;5019567;28;20052;-81
2022/01/30 12:36:25;;;;;;;34.63;6.03;;;7.90;98.30;;;;;;4987414;28;20042;-81
2022/01/30 12:39:01;;;;;;;22.23;4.18;;;7.70;97.60;;;;;;4987325;28;20041;-81
2022/01/30 12:41:28;;;;;;;56.60;6.05;;;7.60;96.90;;;;;;5015709;28;20045;-81
2022/01/30 12:43:57;;;;;;;23.35;3.70;;;7.50;97.90;;;;;;5004163;28;20030;-81
2022/01/30 12:46:25;;;;;;;17.27;4.00;;;7.50;97.70;;;;;;5003217;28;20042;-79
2022/01/30 12:49:09;;;;;;;1.77;0.55;;;7.50;98.30;;;;;;4993999;28;20053;-79
2022/01/30 12:51:36;;;;;;;27.40;3.30;;;7.60;98.60;;;;;;4985521;28;20042;-79
2022/01/30 12:54:03;;;;;;;6.60;1.88;;;7.70;98.20;;;;;;4985118;28;20042;-79
2022/01/30 12:56:29;;;;;;;22.83;4.20;;;7.60;98.60;;;;;;4986236;28;20042;-78
2022/01/30 12:58:59;;;;;;;37.28;5.93;;;7.60;98.90;;;;;;5002589;28;20079;-79
2022/01/30 13:01:27;;;;;;;26.98;4.82;;;7.70;98.30;;;;;;4985886;28;20407;-79
2022/01/30 13:04:05;;;;;;;20.80;4.35;;;7.90;97.50;;;;;;4985915;28;20092;-79
2022/01/30 13:06:33;;;;;;;23.17;3.70;;;8.10;97.10;;;;;;4982791;28;20041;-79
2022/01/30 13:08:58;;;;;;;23.52;3.78;;;8.20;96.80;;;;;;5003244;28;20688;-79
2022/01/30 13:11:24;;;;;;;34.25;5.00;;;8.30;96.00;;;;;;4992883;28;20133;-79
2022/01/30 13:13:55;;;;;;;17.67;3.35;;;8.30;93.60;;;;;;5004145;28;20049;-79
2022/01/30 13:16:31;;;;;;;25.98;4.90;;;8.20;92.80;;;;;;5002316;28;20055;-79
2022/01/30 13:18:58;;;;;;;19.20;4.60;;;8.10;92.80;;;;;;5015458;28;20113;-78
2022/01/30 13:21:26;;;;;;;7.22;2.13;;;7.90;91.90;;;;;;4987907;28;20511;-79
2022/01/30 13:23:53;;;;;;;8.63;2.47;;;7.70;93.20;;;;;;4988739;28;20038;-78
2022/01/30 13:26:29;;;;;;;23.23;5.28;;;7.60;92.80;;;;;;5003290;28;20402;-78
2022/01/30 13:28:54;;;;;;;27.00;3.90;;;7.50;94.00;;;;;;5004405;28;20422;-81
2022/01/30 13:31:20;;;;;;;20.95;4.78;;;7.50;93.90;;;;;;4991049;28;20038;-79
2022/01/30 13:34:04;;;;;;;24.92;4.53;;;7.40;94.30;;;;;;5007219;28;20134;-78
2022/01/30 13:36:30;;;;;;;23.13;4.20;;;7.50;94.90;;;;;;5008498;28;20068;-78
2022/01/30 13:38:56;;;;;;;32.22;5.43;;;7.60;94.00;;;;;;4989467;28;20038;-79
2022/01/30 13:41:30;;;;;;;24.40;4.43;;;7.60;94.00;;;;;;5007135;28;20052;-78
2022/01/30 13:43:58;;;;;;;16.30;3.50;;;7.50;94.10;;;;;;5020516;28;20065;-78
2022/01/30 13:49:13;;;;;;;24.95;5.07;;;7.60;94.20;;;;;;5007833;28;20050;-78